KEMP/EMP METAR and TAF weather

Enter ICAO airport designator
Station Type Date Time Source
KEMP METAR 2020/12/06 00:53 UTC NOAA

KEMP 060053Z AUTO 31004KT 10SM CLR 04/M02 A3016 RMK AO2 SLP223 T00391022


Station Type Date Time Source
KEMP Decoded METAR 2020/12/06 00:53 UTC NOAA

EMPORIA MUNICIPAL AIRPORT, KS, United States (KEMP) 38-20N 96-12W 367M
Dec 05, 2020 - 07:53 PM EST / 2020.12.06 0053 UTC
Wind: from the NW (310 degrees) at 5 MPH (4 KT):0
Visibility: 10 mile(s):0
Sky conditions: clear
Temperature: 39.0 F (3.9 C)
Dew Point: 28.0 F (-2.2 C)
Relative Humidity: 64%
Pressure (altimeter): 30.16 in. Hg (1021 hPa)
ob: KEMP 060053Z AUTO 31004KT 10SM CLR 04/M02 A3016 RMK AO2 SLP223 T00391022
cycle: 1

Station Type Date Time Source
KEMP TAF UTC NOAA

Error!

Example: see airport list